createdAt,value
2022-10-19T00:01:09.170Z,12.50
2022-10-19T00:03:36.518Z,12.50
2022-10-19T00:06:25.991Z,12.50
2022-10-19T00:08:58.982Z,12.50
2022-10-19T00:11:27.286Z,12.50
2022-10-19T00:13:55.768Z,12.50
2022-10-19T00:16:24.754Z,12.50
2022-10-19T00:18:51.915Z,12.60
2022-10-19T00:21:19.819Z,12.60
2022-10-19T00:23:47.157Z,12.60
2022-10-19T00:26:14.434Z,12.60
2022-10-19T00:28:42.601Z,12.60
2022-10-19T00:31:16.692Z,12.60
2022-10-19T00:33:46.808Z,12.60
2022-10-19T00:36:25.598Z,12.60
2022-10-19T00:38:53.644Z,12.70
2022-10-19T00:41:23.368Z,12.70
2022-10-19T00:44:11.388Z,12.60
2022-10-19T00:46:41.560Z,12.60
2022-10-19T00:49:13.731Z,12.60
2022-10-19T00:51:44.644Z,12.60
2022-10-19T00:54:12.406Z,12.60
2022-10-19T00:56:42.427Z,12.70
2022-10-19T00:59:10.544Z,12.70
2022-10-19T01:01:37.636Z,12.70
2022-10-19T01:04:05.609Z,12.80
2022-10-19T01:06:34.049Z,12.80
2022-10-19T01:09:01.026Z,12.80
2022-10-19T01:11:57.216Z,12.90
2022-10-19T01:14:36.390Z,12.90
2022-10-19T01:17:28.404Z,12.90
2022-10-19T01:20:33.046Z,12.90
2022-10-19T01:23:24.936Z,12.90
2022-10-19T01:26:09.826Z,12.90
2022-10-19T01:28:45.962Z,12.90
2022-10-19T01:31:47.294Z,12.90
2022-10-19T01:34:27.378Z,12.90
2022-10-19T01:37:30.750Z,12.90
2022-10-19T01:40:06.897Z,12.90
2022-10-19T01:42:46.264Z,12.90
2022-10-19T01:45:21.532Z,12.90
2022-10-19T01:48:07.086Z,12.90
2022-10-19T01:50:55.349Z,12.90
2022-10-19T01:53:24.598Z,12.90
2022-10-19T01:55:53.403Z,12.90
2022-10-19T01:58:26.901Z,12.90
2022-10-19T02:00:57.098Z,12.90
2022-10-19T02:03:25.556Z,12.90
2022-10-19T02:05:54.268Z,12.90
2022-10-19T02:08:27.848Z,12.90
2022-10-19T02:10:55.553Z,12.90
2022-10-19T02:13:23.174Z,12.90
2022-10-19T02:15:54.845Z,12.90
2022-10-19T02:18:29.798Z,12.90
2022-10-19T02:20:57.361Z,12.90
2022-10-19T02:23:27.498Z,12.80
2022-10-19T02:25:55.599Z,12.80
2022-10-19T02:30:56.904Z,12.70
2022-10-19T02:33:24.106Z,12.60
2022-10-19T02:35:51.237Z,12.60
2022-10-19T02:38:21.505Z,12.60
2022-10-19T02:41:04.363Z,12.60
2022-10-19T02:43:34.911Z,12.60
2022-10-19T02:46:08.999Z,12.60
2022-10-19T02:48:36.793Z,12.60
2022-10-19T02:51:03.989Z,12.60
2022-10-19T02:53:30.924Z,12.50
2022-10-19T02:55:57.951Z,12.50
2022-10-19T02:58:24.986Z,12.50
2022-10-19T03:00:52.000Z,12.40
2022-10-19T03:03:19.096Z,12.30
2022-10-19T03:05:46.008Z,12.20
2022-10-19T03:08:13.074Z,12.20
2022-10-19T03:10:39.932Z,12.10
2022-10-19T03:13:07.343Z,12.00
2022-10-19T03:15:34.224Z,12.00
2022-10-19T03:18:02.321Z,11.90
2022-10-19T03:20:29.299Z,11.80
2022-10-19T03:22:59.690Z,11.80
2022-10-19T03:25:28.823Z,11.70
2022-10-19T03:27:55.742Z,11.70
2022-10-19T03:30:22.626Z,11.70
2022-10-19T03:32:49.641Z,11.70
2022-10-19T03:35:16.976Z,11.70
2022-10-19T03:37:44.430Z,11.70
2022-10-19T03:40:11.499Z,11.70
2022-10-19T03:42:39.455Z,11.80
2022-10-19T03:45:10.039Z,11.80
2022-10-19T03:47:37.040Z,11.80
2022-10-19T03:50:06.023Z,11.90
2022-10-19T03:52:32.939Z,11.90
2022-10-19T03:54:59.994Z,11.90
2022-10-19T03:57:27.066Z,12.00
2022-10-19T03:59:57.083Z,12.00
2022-10-19T04:02:24.159Z,12.00
2022-10-19T04:04:51.249Z,12.00
2022-10-19T04:07:18.196Z,12.00
2022-10-19T04:09:45.666Z,12.10
2022-10-19T04:12:17.351Z,12.10
2022-10-19T04:14:57.021Z,12.10
2022-10-19T04:17:25.195Z,12.20
2022-10-19T04:19:52.135Z,12.20
2022-10-19T04:22:18.953Z,12.20
2022-10-19T04:24:47.041Z,12.20
2022-10-19T04:27:18.644Z,12.20
2022-10-19T04:29:45.710Z,12.20
2022-10-19T04:32:12.923Z,12.20
2022-10-19T04:34:40.310Z,12.20
2022-10-19T04:37:07.369Z,12.20
2022-10-19T04:39:34.317Z,12.20
2022-10-19T04:42:01.312Z,12.10
2022-10-19T04:44:28.794Z,12.10
2022-10-19T04:46:56.070Z,12.10
2022-10-19T04:49:23.062Z,12.10
2022-10-19T04:51:49.956Z,12.10
2022-10-19T04:54:16.895Z,12.10
2022-10-19T04:56:43.797Z,12.10
2022-10-19T04:59:10.901Z,12.10
2022-10-19T05:01:39.148Z,12.10
2022-10-19T05:04:07.349Z,12.00
2022-10-19T05:06:34.341Z,12.00
2022-10-19T05:09:01.274Z,12.00
2022-10-19T05:11:28.857Z,12.00
2022-10-19T05:13:57.226Z,12.00
2022-10-19T05:16:24.835Z,12.00
2022-10-19T05:18:56.865Z,12.00
2022-10-19T05:21:23.843Z,12.00
2022-10-19T05:23:53.546Z,12.10
2022-10-19T05:26:22.546Z,12.10
2022-10-19T05:28:51.034Z,12.10
2022-10-19T05:31:20.578Z,12.00
2022-10-19T05:33:50.350Z,12.00
2022-10-19T05:36:18.778Z,12.00
2022-10-19T05:38:47.148Z,12.00
2022-10-19T05:41:14.977Z,12.00
2022-10-19T05:43:42.880Z,12.00
2022-10-19T05:46:17.582Z,12.00
2022-10-19T05:48:45.498Z,12.10
2022-10-19T05:51:15.014Z,12.10
2022-10-19T05:53:42.122Z,12.10
2022-10-19T05:56:13.067Z,12.10
2022-10-19T05:58:40.650Z,12.10
2022-10-19T06:01:09.513Z,12.10
2022-10-19T06:03:36.643Z,12.10
2022-10-19T06:06:08.125Z,12.10
2022-10-19T06:08:35.780Z,12.10
2022-10-19T06:11:17.344Z,12.10
2022-10-19T06:13:46.145Z,12.10
2022-10-19T06:16:18.342Z,12.10
2022-10-19T06:18:45.948Z,12.10
2022-10-19T06:21:19.052Z,12.10
2022-10-19T06:23:53.806Z,12.10
2022-10-19T06:26:25.364Z,12.20
2022-10-19T06:28:56.238Z,12.20
2022-10-19T06:31:23.410Z,12.10
2022-10-19T06:33:50.357Z,12.20
2022-10-19T06:36:23.035Z,12.20
2022-10-19T06:38:50.798Z,12.20
2022-10-19T06:41:18.144Z,12.20
2022-10-19T06:43:49.198Z,12.30
2022-10-19T06:46:20.605Z,12.30
2022-10-19T06:48:59.663Z,12.30
2022-10-19T06:51:30.238Z,12.30
2022-10-19T06:53:57.598Z,12.40
2022-10-19T06:56:27.992Z,12.40
2022-10-19T06:58:55.533Z,12.50
2022-10-19T07:01:23.159Z,12.50
2022-10-19T07:03:53.941Z,12.50
2022-10-19T07:06:21.527Z,12.50
2022-10-19T07:08:48.754Z,12.60
2022-10-19T07:11:18.003Z,12.60
2022-10-19T07:13:44.995Z,12.60
2022-10-19T07:16:17.607Z,12.70
2022-10-19T07:18:48.731Z,12.70
2022-10-19T07:21:16.427Z,12.60
2022-10-19T07:23:45.339Z,12.70
2022-10-19T07:26:18.794Z,12.70
2022-10-19T07:28:47.860Z,12.70
2022-10-19T07:31:21.387Z,12.80
2022-10-19T07:33:55.818Z,12.80
2022-10-19T07:36:23.650Z,12.80
2022-10-19T07:38:50.634Z,12.80
2022-10-19T07:41:20.017Z,12.90
2022-10-19T07:43:48.307Z,12.90
2022-10-19T07:46:18.287Z,12.90
2022-10-19T07:48:48.939Z,13.00
2022-10-19T07:51:17.893Z,13.00
2022-10-19T07:53:45.718Z,13.00
2022-10-19T07:56:15.487Z,13.00
2022-10-19T07:58:42.559Z,13.10
2022-10-19T08:01:21.414Z,13.10
2022-10-19T08:06:36.669Z,13.20
2022-10-19T08:09:05.110Z,13.20
2022-10-19T08:11:34.324Z,13.20
2022-10-19T08:14:03.800Z,13.30
2022-10-19T08:16:37.571Z,13.30
2022-10-19T08:19:13.452Z,13.40
2022-10-19T08:21:44.645Z,13.50
2022-10-19T08:24:13.843Z,13.50
2022-10-19T08:26:41.343Z,13.50
2022-10-19T08:29:14.699Z,13.60
2022-10-19T08:31:43.037Z,13.60
2022-10-19T08:34:10.913Z,13.60
2022-10-19T08:36:37.795Z,13.60
2022-10-19T08:39:08.089Z,13.70
2022-10-19T08:41:40.818Z,13.70
2022-10-19T08:44:16.897Z,13.60
2022-10-19T08:47:12.519Z,13.60
2022-10-19T08:49:41.713Z,13.70
2022-10-19T08:52:17.958Z,13.70
2022-10-19T08:54:57.139Z,13.80
2022-10-19T08:57:54.100Z,13.90
2022-10-19T09:00:52.010Z,13.90
2022-10-19T09:03:57.988Z,13.80
2022-10-19T09:06:51.871Z,13.90
2022-10-19T09:09:20.777Z,14.00
2022-10-19T09:11:50.925Z,14.00
2022-10-19T09:14:33.258Z,14.10
2022-10-19T09:17:10.680Z,14.10
2022-10-19T09:19:37.907Z,14.20
2022-10-19T09:22:21.894Z,14.20
2022-10-19T09:24:51.891Z,14.20
2022-10-19T09:27:30.774Z,14.20
2022-10-19T09:30:01.164Z,14.20
2022-10-19T09:32:36.047Z,14.20
2022-10-19T09:35:15.040Z,14.20
2022-10-19T09:37:45.917Z,14.30
2022-10-19T09:40:22.340Z,14.30
2022-10-19T09:42:56.958Z,14.30
2022-10-19T09:45:33.264Z,14.30
2022-10-19T09:48:07.200Z,14.30
2022-10-19T09:50:35.839Z,14.20
2022-10-19T09:53:06.187Z,14.30
2022-10-19T09:55:39.962Z,14.30
2022-10-19T09:58:19.426Z,14.20
2022-10-19T10:00:50.738Z,14.20
2022-10-19T10:03:33.135Z,14.20
2022-10-19T10:06:06.029Z,14.20
2022-10-19T10:08:38.861Z,14.20
2022-10-19T10:11:15.518Z,14.20
2022-10-19T10:13:50.786Z,14.20
2022-10-19T10:16:20.916Z,14.30
2022-10-19T10:18:54.056Z,14.30
2022-10-19T10:21:25.786Z,14.30
2022-10-19T10:24:02.344Z,14.40
2022-10-19T10:26:32.635Z,14.40
2022-10-19T10:29:01.439Z,14.40
2022-10-19T10:31:30.394Z,14.50
2022-10-19T10:34:10.858Z,14.50
2022-10-19T10:36:51.620Z,14.60
2022-10-19T10:39:18.608Z,14.70
2022-10-19T10:41:48.579Z,14.80
2022-10-19T10:44:29.772Z,14.80
2022-10-19T10:47:01.219Z,14.90
2022-10-19T10:49:38.358Z,14.80
2022-10-19T10:52:07.881Z,14.80
2022-10-19T10:54:34.815Z,14.80
2022-10-19T10:57:19.690Z,14.80
2022-10-19T10:59:53.907Z,14.80
2022-10-19T11:02:42.688Z,14.90
2022-10-19T11:05:09.636Z,14.90
2022-10-19T11:07:43.085Z,14.90
2022-10-19T11:10:25.526Z,14.90
2022-10-19T11:13:18.694Z,14.90
2022-10-19T11:15:57.331Z,15.00
2022-10-19T11:18:38.088Z,15.20
2022-10-19T11:21:10.229Z,15.50
2022-10-19T11:23:58.627Z,15.70
2022-10-19T11:26:48.873Z,15.80
2022-10-19T11:30:03.835Z,15.90
2022-10-19T11:32:54.341Z,15.90
2022-10-19T11:35:30.701Z,15.80
2022-10-19T11:38:20.390Z,15.80
2022-10-19T11:41:16.880Z,15.90
2022-10-19T11:44:06.488Z,15.90
2022-10-19T11:46:54.763Z,15.70
2022-10-19T11:49:31.912Z,15.90
2022-10-19T11:52:19.068Z,15.80
2022-10-19T11:55:15.272Z,15.60
2022-10-19T11:58:20.862Z,15.50
2022-10-19T12:00:58.050Z,15.40
2022-10-19T12:04:00.230Z,15.30
2022-10-19T12:06:46.221Z,15.50
2022-10-19T12:09:13.149Z,16.60
2022-10-19T12:12:01.912Z,17.70
2022-10-19T12:14:34.748Z,19.10
2022-10-19T12:17:24.450Z,20.30
2022-10-19T12:19:55.771Z,20.40
2022-10-19T12:22:26.836Z,20.00
2022-10-19T12:24:55.689Z,19.20
2022-10-19T12:27:33.614Z,18.50
2022-10-19T12:30:18.400Z,17.90
2022-10-19T12:33:07.258Z,17.70
2022-10-19T12:35:49.235Z,17.90
2022-10-19T12:38:22.053Z,17.60
2022-10-19T12:41:10.810Z,17.20
2022-10-19T12:44:01.906Z,17.10
2022-10-19T12:46:38.756Z,17.30
2022-10-19T12:49:30.832Z,18.60
2022-10-19T12:51:59.677Z,20.00
2022-10-19T12:54:28.841Z,21.00
2022-10-19T12:56:58.320Z,21.40
2022-10-19T12:59:29.084Z,21.90
2022-10-19T13:01:57.494Z,22.50
2022-10-19T13:04:36.175Z,22.80
2022-10-19T13:07:06.147Z,23.00
2022-10-19T13:09:43.862Z,23.00
2022-10-19T13:12:21.288Z,23.10
2022-10-19T13:14:50.950Z,22.90
2022-10-19T13:17:50.064Z,22.70
2022-10-19T13:20:17.501Z,22.70
2022-10-19T13:23:00.959Z,22.80
2022-10-19T13:26:12.948Z,23.30
2022-10-19T13:28:53.154Z,23.10
2022-10-19T13:31:26.181Z,22.70
2022-10-19T13:33:53.867Z,22.10
2022-10-19T13:36:25.685Z,21.00
2022-10-19T13:39:11.595Z,19.90
2022-10-19T13:41:38.494Z,19.30
2022-10-19T13:44:25.055Z,18.70
2022-10-19T13:47:29.552Z,18.20
2022-10-19T13:50:19.467Z,17.90
2022-10-19T13:53:30.016Z,18.10
2022-10-19T13:56:03.930Z,18.00
2022-10-19T13:58:58.976Z,17.50
2022-10-19T14:02:04.479Z,17.10
2022-10-19T14:05:06.826Z,16.80
2022-10-19T14:07:49.508Z,16.80
2022-10-19T14:10:28.221Z,16.70
2022-10-19T14:13:01.881Z,16.50
2022-10-19T14:15:31.276Z,16.10
2022-10-19T14:18:01.300Z,15.90
2022-10-19T14:20:36.879Z,15.80
2022-10-19T14:23:25.886Z,15.70
2022-10-19T14:25:57.367Z,15.70
2022-10-19T14:28:25.302Z,15.60
2022-10-19T14:31:07.091Z,15.60
2022-10-19T14:33:37.539Z,15.50
2022-10-19T14:36:14.396Z,15.40
2022-10-19T14:38:45.577Z,15.30
2022-10-19T14:41:37.140Z,15.30
2022-10-19T14:44:28.714Z,15.30
2022-10-19T14:46:56.545Z,15.30
2022-10-19T14:49:23.587Z,15.20
2022-10-19T14:51:54.425Z,15.10
2022-10-19T14:54:30.935Z,15.10
2022-10-19T14:57:05.595Z,15.10
2022-10-19T14:59:46.148Z,15.00
2022-10-19T15:02:33.510Z,14.90
2022-10-19T15:05:03.684Z,14.80
2022-10-19T15:07:39.903Z,14.80
2022-10-19T15:10:18.629Z,14.60
2022-10-19T15:12:45.904Z,14.60
2022-10-19T15:15:22.525Z,14.50
2022-10-19T15:18:30.180Z,14.50
2022-10-19T15:21:13.117Z,14.50
2022-10-19T15:23:45.712Z,14.40
2022-10-19T15:26:21.668Z,14.40
2022-10-19T15:28:49.924Z,14.30
2022-10-19T15:31:24.995Z,14.30
2022-10-19T15:33:57.528Z,14.20
2022-10-19T15:36:25.759Z,14.10
2022-10-19T15:39:11.180Z,14.10
2022-10-19T15:41:45.841Z,14.00
2022-10-19T15:44:32.827Z,13.90
2022-10-19T15:47:14.823Z,13.90
2022-10-19T15:49:41.774Z,13.80
2022-10-19T15:52:34.447Z,13.80
2022-10-19T15:55:01.857Z,13.70
2022-10-19T15:57:30.260Z,13.60
2022-10-19T15:59:59.497Z,13.50
2022-10-19T16:02:26.914Z,13.50
2022-10-19T16:04:58.921Z,13.40
2022-10-19T16:07:31.995Z,13.40
2022-10-19T16:09:59.423Z,13.30
2022-10-19T16:12:26.970Z,13.20
2022-10-19T16:14:54.840Z,13.20
2022-10-19T16:17:22.414Z,13.10
2022-10-19T16:19:49.707Z,13.00
2022-10-19T16:22:17.175Z,12.90
2022-10-19T16:24:44.234Z,12.90
2022-10-19T16:27:15.223Z,12.90
2022-10-19T16:29:44.284Z,12.80
2022-10-19T16:32:11.310Z,12.80
2022-10-19T16:34:38.472Z,12.70
2022-10-19T16:37:07.147Z,12.70
2022-10-19T16:39:35.096Z,12.60
2022-10-19T16:42:02.124Z,12.50
2022-10-19T16:44:29.538Z,12.40
2022-10-19T16:47:00.251Z,12.30
2022-10-19T16:49:28.504Z,12.20
2022-10-19T16:51:57.425Z,12.20
2022-10-19T16:54:36.032Z,12.10
2022-10-19T16:57:08.732Z,12.10
2022-10-19T16:59:36.800Z,12.00
2022-10-19T17:02:03.943Z,12.00
2022-10-19T17:04:36.826Z,11.90
2022-10-19T17:07:03.761Z,11.90
2022-10-19T17:09:41.467Z,11.90
2022-10-19T17:12:10.260Z,11.90
2022-10-19T17:14:40.145Z,11.90
2022-10-19T17:17:07.838Z,11.80
2022-10-19T17:19:34.872Z,11.80
2022-10-19T17:22:03.033Z,11.80
2022-10-19T17:24:30.894Z,11.80
2022-10-19T17:27:00.524Z,11.80
2022-10-19T17:29:27.375Z,11.80
2022-10-19T17:32:19.657Z,11.70
2022-10-19T17:34:47.252Z,11.80
2022-10-19T17:37:14.177Z,11.70
2022-10-19T17:39:41.458Z,11.70
2022-10-19T17:42:08.516Z,11.70
2022-10-19T17:44:35.476Z,11.60
2022-10-19T17:47:02.462Z,11.60
2022-10-19T17:49:29.999Z,11.60
2022-10-19T17:51:57.057Z,11.50
2022-10-19T17:54:24.041Z,11.50
2022-10-19T17:56:51.311Z,11.50
2022-10-19T17:59:20.278Z,11.50
2022-10-19T18:01:56.800Z,11.50
2022-10-19T18:04:23.791Z,11.50
2022-10-19T18:06:52.106Z,11.40
2022-10-19T18:09:19.126Z,11.40
2022-10-19T18:11:46.340Z,11.40
2022-10-19T18:14:13.587Z,11.40
2022-10-19T18:16:45.317Z,11.40
2022-10-19T18:19:13.909Z,11.40
2022-10-19T18:21:44.120Z,11.40
2022-10-19T18:24:19.487Z,11.40
2022-10-19T18:26:47.564Z,11.40
2022-10-19T18:29:28.202Z,11.30
2022-10-19T18:31:55.449Z,11.30
2022-10-19T18:34:26.314Z,11.30
2022-10-19T18:36:54.062Z,11.30
2022-10-19T18:39:21.225Z,11.30
2022-10-19T18:41:52.348Z,11.30
2022-10-19T18:44:25.151Z,11.20
2022-10-19T18:46:55.041Z,11.30
2022-10-19T18:49:22.291Z,11.20
2022-10-19T18:51:54.062Z,11.20
2022-10-19T18:54:22.666Z,11.20
2022-10-19T18:56:49.680Z,11.10
2022-10-19T18:59:16.929Z,11.10
2022-10-19T19:01:44.303Z,11.10
2022-10-19T19:04:11.593Z,11.00
2022-10-19T19:06:40.736Z,11.10
2022-10-19T19:09:10.574Z,11.00
2022-10-19T19:11:39.313Z,11.00
2022-10-19T19:14:07.951Z,10.90
2022-10-19T19:16:37.947Z,10.90
2022-10-19T19:19:06.639Z,10.90
2022-10-19T19:21:35.038Z,10.80
2022-10-19T19:24:04.222Z,10.80
2022-10-19T19:26:33.845Z,10.80
2022-10-19T19:29:00.927Z,10.80
2022-10-19T19:31:28.116Z,10.70
2022-10-19T19:33:55.258Z,10.70
2022-10-19T19:36:22.419Z,10.70
2022-10-19T19:38:51.469Z,10.70
2022-10-19T19:41:18.893Z,10.70
2022-10-19T19:43:46.375Z,10.70
2022-10-19T19:46:16.683Z,10.70
2022-10-19T19:48:46.488Z,10.60
2022-10-19T19:51:18.436Z,10.60
2022-10-19T19:53:50.114Z,10.60
2022-10-19T19:56:19.760Z,10.50
2022-10-19T19:58:47.283Z,10.40
2022-10-19T20:01:19.698Z,10.40
2022-10-19T20:03:47.903Z,10.40
2022-10-19T20:06:18.656Z,10.40
2022-10-19T20:08:47.971Z,10.30
2022-10-19T20:11:17.600Z,10.30
2022-10-19T20:13:46.044Z,10.30
2022-10-19T20:16:17.199Z,10.30
2022-10-19T20:18:46.805Z,10.30
2022-10-19T20:21:14.820Z,10.30
2022-10-19T20:23:45.909Z,10.20
2022-10-19T20:26:23.231Z,10.20
2022-10-19T20:28:50.928Z,10.20
2022-10-19T20:31:18.630Z,10.20
2022-10-19T20:33:47.767Z,10.20
2022-10-19T20:36:17.748Z,10.10
2022-10-19T20:38:58.821Z,10.10
2022-10-19T20:41:27.494Z,10.10
2022-10-19T20:43:55.838Z,10.10
2022-10-19T20:46:25.544Z,10.10
2022-10-19T20:48:52.668Z,10.10
2022-10-19T20:51:20.996Z,10.10
2022-10-19T20:53:50.432Z,10.10
2022-10-19T20:56:21.623Z,10.10
2022-10-19T20:58:50.578Z,10.00
2022-10-19T21:01:18.926Z,10.00
2022-10-19T21:03:57.362Z,10.00
2022-10-19T21:06:26.011Z,10.00
2022-10-19T21:08:53.679Z,10.00
2022-10-19T21:11:29.202Z,10.00
2022-10-19T21:13:59.134Z,10.00
2022-10-19T21:16:28.360Z,10.00
2022-10-19T21:18:55.764Z,10.00
2022-10-19T21:21:29.666Z,10.00
2022-10-19T21:24:06.519Z,10.00
2022-10-19T21:26:35.617Z,10.00
2022-10-19T21:29:04.421Z,10.00
2022-10-19T21:31:31.756Z,10.00
2022-10-19T21:33:58.859Z,10.00
2022-10-19T21:36:26.456Z,10.00
2022-10-19T21:38:53.410Z,9.90
2022-10-19T21:41:25.366Z,9.90
2022-10-19T21:43:54.654Z,9.90
2022-10-19T21:46:22.851Z,9.90
2022-10-19T21:48:50.121Z,9.80
2022-10-19T21:51:17.346Z,9.80
2022-10-19T21:53:44.461Z,9.80
2022-10-19T21:56:11.366Z,9.70
2022-10-19T21:58:38.895Z,9.70
2022-10-19T22:01:08.058Z,9.70
2022-10-19T22:03:34.968Z,9.70
2022-10-19T22:06:01.922Z,9.70
2022-10-19T22:08:31.984Z,9.70
2022-10-19T22:11:05.845Z,9.70
2022-10-19T22:13:33.900Z,9.70
2022-10-19T22:16:09.762Z,9.70
2022-10-19T22:18:36.874Z,9.60
2022-10-19T22:21:05.535Z,9.60
2022-10-19T22:23:32.457Z,9.50
2022-10-19T22:26:00.074Z,9.60
2022-10-19T22:28:27.686Z,9.60
2022-10-19T22:30:56.038Z,9.60
2022-10-19T22:33:24.027Z,9.50
2022-10-19T22:35:59.178Z,9.60
2022-10-19T22:38:27.228Z,9.50
2022-10-19T22:41:50.640Z,9.50
2022-10-19T22:44:17.568Z,9.50
2022-10-19T22:46:44.691Z,9.50
2022-10-19T22:49:11.741Z,9.50
2022-10-19T22:51:38.757Z,9.50
2022-10-19T22:54:05.796Z,9.40
2022-10-19T22:56:36.823Z,9.40
2022-10-19T22:59:06.087Z,9.40
2022-10-19T23:01:33.594Z,9.30
2022-10-19T23:04:00.643Z,9.30
2022-10-19T23:06:27.945Z,9.30
2022-10-19T23:08:55.067Z,9.20
2022-10-19T23:11:22.246Z,9.20
2022-10-19T23:13:49.542Z,9.20
2022-10-19T23:16:16.509Z,9.20
2022-10-19T23:18:43.519Z,9.20
2022-10-19T23:21:13.445Z,9.20
2022-10-19T23:23:41.084Z,9.20
2022-10-19T23:26:11.204Z,9.10
2022-10-19T23:28:40.028Z,9.10
2022-10-19T23:31:13.447Z,9.10
2022-10-19T23:33:41.163Z,9.10
2022-10-19T23:36:11.663Z,9.10
2022-10-19T23:38:38.782Z,9.00
2022-10-19T23:41:05.838Z,9.00
2022-10-19T23:43:32.821Z,9.00
2022-10-19T23:46:00.293Z,9.00
2022-10-19T23:48:27.243Z,9.00
2022-10-19T23:50:58.164Z,9.00
2022-10-19T23:53:25.428Z,9.00
2022-10-19T23:55:52.599Z,8.90
2022-10-19T23:58:19.398Z,8.90
